createdAt,value
2023-04-25T00:00:15.022Z,98865.09
2023-04-25T00:02:42.598Z,98852.75
2023-04-25T00:05:10.228Z,98873.19
2023-04-25T00:07:36.983Z,98864.59
2023-04-25T00:10:04.269Z,98857.34
2023-04-25T00:12:30.823Z,98861.31
2023-04-25T00:15:00.993Z,98859.72
2023-04-25T00:17:27.939Z,98855.25
2023-04-25T00:19:54.651Z,98859.28
2023-04-25T00:22:21.893Z,98856.09
2023-04-25T00:24:48.502Z,98862.56
2023-04-25T00:27:15.038Z,98858.84
2023-04-25T00:29:41.614Z,98862.91
2023-04-25T00:32:08.190Z,98867.00
2023-04-25T00:34:34.760Z,98869.22
2023-04-25T00:37:03.142Z,98870.88
2023-04-25T00:39:29.793Z,98874.13
2023-04-25T00:41:56.620Z,98872.03
2023-04-25T00:44:23.478Z,98857.50
2023-04-25T00:46:53.100Z,98850.53
2023-04-25T00:49:19.674Z,98862.06
2023-04-25T00:51:46.355Z,98859.09
2023-04-25T00:54:16.428Z,98861.28
2023-04-25T00:56:43.285Z,98852.13
2023-04-25T00:59:10.875Z,98852.91
2023-04-25T01:01:38.799Z,98858.53
2023-04-25T01:04:05.830Z,98857.19
2023-04-25T01:06:32.981Z,98843.72
2023-04-25T01:09:00.501Z,98854.16
2023-04-25T01:11:27.089Z,98849.59
2023-04-25T01:13:53.735Z,98842.31
2023-04-25T01:16:20.281Z,98847.66
2023-04-25T01:18:47.742Z,98849.25
2023-04-25T01:21:14.420Z,98850.84
2023-04-25T01:23:42.315Z,98847.78
2023-04-25T01:26:11.242Z,98848.03
2023-04-25T01:28:38.431Z,98847.97
2023-04-25T01:31:06.801Z,98849.56
2023-04-25T01:33:33.703Z,98849.63
2023-04-25T01:36:00.283Z,98851.81
2023-04-25T01:38:27.006Z,98844.84
2023-04-25T01:40:55.020Z,98841.63
2023-04-25T01:43:21.674Z,98838.13
2023-04-25T01:45:49.494Z,98843.31
2023-04-25T01:48:16.330Z,98832.03
2023-04-25T01:50:44.026Z,98830.94
2023-04-25T01:53:12.156Z,98826.34
2023-04-25T01:55:38.789Z,98815.59
2023-04-25T01:58:10.340Z,98809.94
2023-04-25T02:00:39.863Z,98808.84
2023-04-25T02:03:07.464Z,98801.31
2023-04-25T02:05:39.151Z,98792.94
2023-04-25T02:08:10.366Z,98789.69
2023-04-25T02:10:37.459Z,98784.50
2023-04-25T02:13:05.418Z,98783.66
2023-04-25T02:15:32.234Z,98782.28
2023-04-25T02:17:59.046Z,98788.16
2023-04-25T02:20:26.090Z,98800.00
2023-04-25T02:22:53.038Z,98800.00
2023-04-25T02:25:21.072Z,98794.63
2023-04-25T02:27:48.856Z,98798.41
2023-04-25T02:30:16.271Z,98810.22
2023-04-25T02:32:42.823Z,98810.53
2023-04-25T02:35:09.811Z,98813.50
2023-04-25T02:37:38.238Z,98828.63
2023-04-25T02:40:05.485Z,98826.75
2023-04-25T02:42:32.213Z,98823.25
2023-04-25T02:44:58.955Z,98821.06
2023-04-25T02:47:25.592Z,98822.66
2023-04-25T02:49:52.234Z,98818.88
2023-04-25T02:52:18.788Z,98828.03
2023-04-25T02:54:45.325Z,98817.50
2023-04-25T02:57:11.926Z,98825.84
2023-04-25T02:59:38.456Z,98832.41
2023-04-25T03:02:05.015Z,98828.19
2023-04-25T03:04:31.760Z,98825.56
2023-04-25T03:06:58.339Z,98814.81
2023-04-25T03:09:24.912Z,98815.91
2023-04-25T03:11:51.499Z,98815.94
2023-04-25T03:14:18.044Z,98818.72
2023-04-25T03:16:44.613Z,98805.84
2023-04-25T03:19:11.237Z,98810.72
2023-04-25T03:21:37.902Z,98810.22
2023-04-25T03:24:06.878Z,98809.13
2023-04-25T03:26:33.473Z,98809.13
2023-04-25T03:29:00.004Z,98808.03
2023-04-25T03:31:26.929Z,98817.97
2023-04-25T03:33:53.680Z,98814.94
2023-04-25T03:36:20.436Z,98812.75
2023-04-25T03:38:47.519Z,98811.38
2023-04-25T03:41:14.034Z,98804.66
2023-04-25T03:43:40.648Z,98809.44
2023-04-25T03:46:07.233Z,98820.97
2023-04-25T03:48:33.814Z,98805.66
2023-04-25T03:51:00.387Z,98809.44
2023-04-25T03:53:27.054Z,98807.84
2023-04-25T03:55:53.620Z,98807.34
2023-04-25T03:58:20.264Z,98815.44
2023-04-25T04:00:46.949Z,98816.03
2023-04-25T04:03:13.737Z,98814.72
2023-04-25T04:05:41.677Z,98818.78
2023-04-25T04:08:08.386Z,98820.44
2023-04-25T04:10:34.974Z,98816.75
2023-04-25T04:13:01.492Z,98819.94
2023-04-25T04:15:28.304Z,98820.44
2023-04-25T04:17:55.860Z,98822.03
2023-04-25T04:20:22.609Z,98820.66
2023-04-25T04:22:49.208Z,98823.06
2023-04-25T04:25:15.896Z,98821.47
2023-04-25T04:27:42.539Z,98827.63
2023-04-25T04:30:09.522Z,98830.03
2023-04-25T04:32:38.685Z,98839.63
2023-04-25T04:35:07.574Z,98831.53
2023-04-25T04:37:34.578Z,98835.75
2023-04-25T04:40:06.811Z,98836.75
2023-04-25T04:42:33.627Z,98840.97
2023-04-25T04:45:02.632Z,98840.97
2023-04-25T04:47:32.191Z,98843.16
2023-04-25T04:49:58.987Z,98844.56
2023-04-25T04:52:25.659Z,98847.75
2023-04-25T04:54:52.190Z,98850.94
2023-04-25T04:57:18.786Z,98849.09
2023-04-25T04:59:45.513Z,98843.09
2023-04-25T05:02:12.086Z,98844.25
2023-04-25T05:04:38.848Z,98847.28
2023-04-25T05:07:05.491Z,98854.91
2023-04-25T05:09:32.059Z,98859.91
2023-04-25T05:11:58.624Z,98852.03
2023-04-25T05:14:25.227Z,98865.84
2023-04-25T05:16:51.841Z,98858.44
2023-04-25T05:19:18.572Z,98866.91
2023-04-25T05:21:45.100Z,98869.13
2023-04-25T05:24:11.768Z,98865.69
2023-04-25T05:26:38.769Z,98859.59
2023-04-25T05:29:06.537Z,98869.56
2023-04-25T05:31:33.569Z,98863.41
2023-04-25T05:34:00.343Z,98876.66
2023-04-25T05:39:11.635Z,98872.53
2023-04-25T05:41:38.187Z,98880.72
2023-04-25T05:44:04.727Z,98879.47
2023-04-25T05:46:31.332Z,98882.25
2023-04-25T05:48:57.969Z,98881.53
2023-04-25T05:51:24.621Z,98889.59
2023-04-25T05:53:51.583Z,98886.31
2023-04-25T05:56:18.477Z,98899.84
2023-04-25T05:58:45.297Z,98898.50
2023-04-25T06:01:11.918Z,98905.66
2023-04-25T06:03:39.516Z,98902.72
2023-04-25T06:06:06.709Z,98908.03
2023-04-25T06:08:33.402Z,98909.03
2023-04-25T06:10:59.942Z,98906.34
2023-04-25T06:13:26.573Z,98912.25
2023-04-25T06:15:53.157Z,98919.75
2023-04-25T06:18:20.345Z,98923.47
2023-04-25T06:20:46.937Z,98926.06
2023-04-25T06:23:13.816Z,98924.47
2023-04-25T06:25:40.482Z,98926.66
2023-04-25T06:28:07.014Z,98929.84
2023-04-25T06:30:33.572Z,98928.16
2023-04-25T06:33:00.212Z,98931.88
2023-04-25T06:35:26.788Z,98937.19
2023-04-25T06:37:53.628Z,98942.50
2023-04-25T06:40:20.339Z,98947.88
2023-04-25T06:42:46.869Z,98936.72
2023-04-25T06:45:13.448Z,98940.59
2023-04-25T06:47:40.022Z,98940.91
2023-04-25T06:50:07.161Z,98943.44
2023-04-25T06:52:34.079Z,98942.72
2023-04-25T06:55:00.681Z,98951.72
2023-04-25T06:57:27.341Z,98948.97
2023-04-25T06:59:53.852Z,98951.84
2023-04-25T07:02:22.197Z,98963.06
2023-04-25T07:04:49.414Z,98963.22
2023-04-25T07:07:18.193Z,98956.34
2023-04-25T07:09:44.807Z,98965.03
2023-04-25T07:12:11.347Z,98966.03
2023-04-25T07:14:37.948Z,98976.44
2023-04-25T07:17:04.703Z,98970.06
2023-04-25T07:19:31.301Z,98962.63
2023-04-25T07:21:57.834Z,98965.53
2023-04-25T07:24:24.461Z,98965.16
2023-04-25T07:26:51.190Z,98963.75
2023-04-25T07:29:18.097Z,98962.44
2023-04-25T07:31:44.777Z,98964.25
2023-04-25T07:34:11.367Z,98966.84
2023-04-25T07:36:37.915Z,98968.44
2023-04-25T07:39:04.592Z,98967.06
2023-04-25T07:41:31.323Z,98966.72
2023-04-25T07:43:57.869Z,98968.94
2023-04-25T07:46:24.625Z,98981.03
2023-04-25T07:48:51.476Z,98975.31
2023-04-25T07:51:20.843Z,98972.13
2023-04-25T07:53:49.537Z,98984.53
2023-04-25T07:56:17.138Z,98987.84
2023-04-25T07:58:43.835Z,98987.44
2023-04-25T08:01:10.405Z,98991.13
2023-04-25T08:03:37.238Z,98992.72
2023-04-25T08:06:07.664Z,99002.03
2023-04-25T08:08:34.866Z,98998.13
2023-04-25T08:11:01.409Z,99013.50
2023-04-25T08:13:27.927Z,99006.00
2023-04-25T08:15:54.632Z,99009.31
2023-04-25T08:18:21.595Z,99020.63
2023-04-25T08:20:48.190Z,99012.22
2023-04-25T08:23:15.354Z,99021.59
2023-04-25T08:25:42.007Z,99023.25
2023-04-25T08:28:08.514Z,99022.41
2023-04-25T08:30:35.085Z,99017.22
2023-04-25T08:33:01.675Z,99025.22
2023-04-25T08:35:28.314Z,99034.72
2023-04-25T08:37:54.929Z,99030.53
2023-04-25T08:40:27.208Z,99038.19
2023-04-25T08:42:55.407Z,99038.63
2023-04-25T08:45:22.258Z,99031.63
2023-04-25T08:47:49.831Z,99045.47
2023-04-25T08:50:17.823Z,99042.84
2023-04-25T08:52:47.134Z,99056.75
2023-04-25T08:55:15.108Z,99060.06
2023-04-25T08:57:45.760Z,99054.28
2023-04-25T09:00:13.810Z,99067.66
2023-04-25T09:02:41.160Z,99065.88
2023-04-25T09:05:10.790Z,99078.28
2023-04-25T09:07:37.453Z,99077.50
2023-04-25T09:10:04.524Z,99085.09
2023-04-25T09:12:31.784Z,99091.75
2023-04-25T09:15:12.333Z,99096.13
2023-04-25T09:17:42.508Z,99096.72
2023-04-25T09:20:11.614Z,99106.13
2023-04-25T09:22:38.773Z,99107.22
2023-04-25T09:25:10.878Z,99110.81
2023-04-25T09:27:37.396Z,99115.81
2023-04-25T09:30:04.351Z,99123.22
2023-04-25T09:32:31.007Z,99118.00
2023-04-25T09:34:58.516Z,99129.91
2023-04-25T09:37:27.108Z,99135.91
2023-04-25T09:39:57.866Z,99136.78
2023-04-25T09:42:26.344Z,99148.78
2023-04-25T09:44:54.672Z,99141.56
2023-04-25T09:47:24.451Z,99147.78
2023-04-25T09:49:52.586Z,99155.75
2023-04-25T09:52:23.254Z,99156.09
2023-04-25T09:54:52.083Z,99164.34
2023-04-25T09:57:25.996Z,99162.69
2023-04-25T09:59:54.429Z,99173.53
2023-04-25T10:02:23.359Z,99165.84
2023-04-25T10:04:53.821Z,99169.63
2023-04-25T10:07:22.371Z,99172.31
2023-04-25T10:09:52.863Z,99180.97
2023-04-25T10:12:19.462Z,99188.56
2023-04-25T10:14:47.524Z,99191.25
2023-04-25T10:17:15.125Z,99195.88
2023-04-25T10:19:41.991Z,99186.84
2023-04-25T10:22:15.749Z,99185.06
2023-04-25T10:24:42.937Z,99184.00
2023-04-25T10:27:09.895Z,99181.78
2023-04-25T10:29:36.880Z,99182.63
2023-04-25T10:32:03.706Z,99183.22
2023-04-25T10:34:44.678Z,99179.25
2023-04-25T10:37:12.312Z,99188.09
2023-04-25T10:39:43.014Z,99183.19
2023-04-25T10:42:09.680Z,99186.88
2023-04-25T10:44:38.568Z,99189.16
2023-04-25T10:47:09.158Z,99193.56
2023-04-25T10:49:38.587Z,99185.47
2023-04-25T10:52:21.359Z,99195.28
2023-04-25T10:54:58.730Z,99196.84
2023-04-25T10:57:42.502Z,99191.34
2023-04-25T11:00:12.793Z,99202.84
2023-04-25T11:02:44.242Z,99199.72
2023-04-25T11:05:11.413Z,99204.94
2023-04-25T11:08:07.550Z,99197.53
2023-04-25T11:10:36.657Z,99195.25
2023-04-25T11:13:03.493Z,99193.19
2023-04-25T11:15:30.139Z,99195.34
2023-04-25T11:17:56.882Z,99190.50
2023-04-25T11:20:27.146Z,99202.19
2023-04-25T11:22:54.173Z,99195.84
2023-04-25T11:25:21.199Z,99200.28
2023-04-25T11:27:52.321Z,99200.78
2023-04-25T11:30:20.157Z,99219.88
2023-04-25T11:32:46.999Z,99206.44
2023-04-25T11:35:14.452Z,99197.22
2023-04-25T11:37:42.041Z,99198.25
2023-04-25T11:40:10.677Z,99189.25
2023-04-25T11:42:45.368Z,99192.09
2023-04-25T11:45:12.961Z,99197.25
2023-04-25T11:47:39.563Z,99198.16
2023-04-25T11:50:08.844Z,99198.41
2023-04-25T11:52:42.643Z,99207.38
2023-04-25T11:55:11.608Z,99209.22
2023-04-25T11:57:42.664Z,99211.88
2023-04-25T12:00:22.784Z,99212.69
2023-04-25T12:02:54.249Z,99211.44
2023-04-25T12:07:54.335Z,99216.13
2023-04-25T12:10:21.451Z,99215.94
2023-04-25T12:12:49.219Z,99222.53
2023-04-25T12:15:20.455Z,99206.13
2023-04-25T12:17:48.691Z,99217.84
2023-04-25T12:20:18.287Z,99213.94
2023-04-25T12:22:47.770Z,99217.22
2023-04-25T12:25:43.177Z,99217.56
2023-04-25T12:28:13.153Z,99212.25
2023-04-25T12:30:53.366Z,99213.47
2023-04-25T12:33:19.921Z,99221.34
2023-04-25T12:35:46.687Z,99221.53
2023-04-25T12:38:31.451Z,99227.19
2023-04-25T12:40:59.258Z,99226.03
2023-04-25T12:43:26.024Z,99226.47
2023-04-25T12:45:54.281Z,99230.53
2023-04-25T12:48:21.466Z,99225.84
2023-04-25T12:50:50.205Z,99230.44
2023-04-25T12:53:17.924Z,99227.44
2023-04-25T12:55:47.002Z,99232.75
2023-04-25T12:58:14.780Z,99229.78
2023-04-25T13:00:41.357Z,99231.63
2023-04-25T13:03:08.293Z,99233.97
2023-04-25T13:05:35.054Z,99227.31
2023-04-25T13:08:01.597Z,99236.78
2023-04-25T13:10:28.124Z,99249.31
2023-04-25T13:12:54.646Z,99237.63
2023-04-25T13:15:21.494Z,99248.75
2023-04-25T13:17:48.101Z,99237.91
2023-04-25T13:20:15.975Z,99238.91
2023-04-25T13:22:43.346Z,99228.59
2023-04-25T13:25:10.047Z,99227.53
2023-04-25T13:27:40.188Z,99227.84
2023-04-25T13:30:10.534Z,99235.72
2023-04-25T13:32:38.538Z,99240.91
2023-04-25T13:35:09.155Z,99235.94
2023-04-25T13:37:37.487Z,99238.06
2023-04-25T13:40:07.385Z,99247.00
2023-04-25T13:42:33.902Z,99245.19
2023-04-25T13:45:00.460Z,99252.47
2023-04-25T13:47:28.030Z,99245.06
2023-04-25T13:49:55.458Z,99256.13
2023-04-25T13:52:22.127Z,99257.91
2023-04-25T13:54:48.646Z,99272.28
2023-04-25T13:57:15.238Z,99269.19
2023-04-25T13:59:41.925Z,99267.94
2023-04-25T14:02:08.611Z,99270.34
2023-04-25T14:04:35.223Z,99267.75
2023-04-25T14:07:03.239Z,99272.38
2023-04-25T14:09:30.528Z,99279.19
2023-04-25T14:11:57.557Z,99272.59
2023-04-25T14:14:24.903Z,99267.97
2023-04-25T14:16:54.712Z,99276.41
2023-04-25T14:19:22.400Z,99280.00
2023-04-25T14:21:49.151Z,99275.19
2023-04-25T14:24:15.867Z,99276.63
2023-04-25T14:26:43.458Z,99274.53
2023-04-25T14:29:12.655Z,99283.22
2023-04-25T14:31:41.410Z,99288.94
2023-04-25T14:34:08.305Z,99281.00
2023-04-25T14:36:35.394Z,99288.63
2023-04-25T14:39:02.110Z,99283.44
2023-04-25T14:41:28.863Z,99287.63
2023-04-25T14:43:56.672Z,99286.13
2023-04-25T14:49:08.368Z,99293.81
2023-04-25T14:51:34.939Z,99292.84
2023-04-25T14:54:01.501Z,99305.75
2023-04-25T14:56:28.076Z,99300.84
2023-04-25T14:58:54.659Z,99304.84
2023-04-25T15:01:21.916Z,99298.34
2023-04-25T15:03:49.516Z,99302.94
2023-04-25T15:06:16.239Z,99303.44
2023-04-25T15:08:42.861Z,99306.63
2023-04-25T15:11:09.536Z,99304.41
2023-04-25T15:13:36.039Z,99302.22
2023-04-25T15:16:02.647Z,99300.41
2023-04-25T15:18:29.240Z,99305.09
2023-04-25T15:20:56.069Z,99308.88
2023-04-25T15:23:22.908Z,99303.25
2023-04-25T15:25:51.699Z,99313.75
2023-04-25T15:28:18.326Z,99309.78
2023-04-25T15:30:45.038Z,99308.59
2023-04-25T15:33:11.874Z,99319.13
2023-04-25T15:35:38.517Z,99317.44
2023-04-25T15:38:05.347Z,99321.78
2023-04-25T15:40:32.135Z,99329.81
2023-04-25T15:42:59.734Z,99318.31
2023-04-25T15:45:26.981Z,99326.72
2023-04-25T15:47:55.826Z,99328.13
2023-04-25T15:50:23.361Z,99328.53
2023-04-25T15:52:51.246Z,99335.94
2023-04-25T15:55:19.629Z,99327.94
2023-04-25T15:57:46.416Z,99332.34
2023-04-25T16:00:15.171Z,99331.31
2023-04-25T16:02:43.203Z,99335.13
2023-04-25T16:05:11.491Z,99333.53
2023-04-25T16:07:39.696Z,99325.72
2023-04-25T16:10:06.679Z,99333.53
2023-04-25T16:12:33.297Z,99335.72
2023-04-25T16:14:59.869Z,99339.25
2023-04-25T16:17:29.625Z,99335.56
2023-04-25T16:19:56.973Z,99338.53
2023-04-25T16:22:23.633Z,99346.94
2023-04-25T16:24:50.826Z,99339.75
2023-04-25T16:27:17.445Z,99336.63
2023-04-25T16:29:44.078Z,99357.75
2023-04-25T16:32:11.202Z,99358.56
2023-04-25T16:34:37.771Z,99350.06
2023-04-25T16:37:04.565Z,99358.47
2023-04-25T16:39:31.101Z,99351.75
2023-04-25T16:41:57.674Z,99350.84
2023-04-25T16:44:24.211Z,99359.97
2023-04-25T16:46:50.806Z,99362.38
2023-04-25T16:49:17.437Z,99354.78
2023-04-25T16:51:44.012Z,99359.56
2023-04-25T16:54:10.601Z,99358.97
2023-04-25T16:56:37.353Z,99358.09
2023-04-25T16:59:03.895Z,99365.50
2023-04-25T17:01:31.315Z,99365.69
2023-04-25T17:03:58.183Z,99360.56
2023-04-25T17:06:25.010Z,99358.19
2023-04-25T17:08:51.973Z,99355.78
2023-04-25T17:11:20.167Z,99368.81
2023-04-25T17:13:46.820Z,99368.63
2023-04-25T17:16:16.621Z,99366.97
2023-04-25T17:18:44.146Z,99375.63
2023-04-25T17:21:10.899Z,99379.44
2023-04-25T17:23:37.669Z,99374.59
2023-04-25T17:26:04.310Z,99378.41
2023-04-25T17:28:31.102Z,99382.22
2023-04-25T17:30:57.779Z,99379.63
2023-04-25T17:33:27.115Z,99387.81
2023-04-25T17:35:54.384Z,99383.63
2023-04-25T17:38:21.656Z,99384.50
2023-04-25T17:40:48.269Z,99390.69
2023-04-25T17:43:14.801Z,99394.81
2023-04-25T17:45:41.544Z,99395.19
2023-04-25T17:48:08.522Z,99391.59
2023-04-25T17:50:35.207Z,99394.94
2023-04-25T17:53:05.580Z,99400.94
2023-04-25T17:55:32.112Z,99394.53
2023-04-25T17:57:58.650Z,99389.63
2023-04-25T18:00:25.684Z,99399.34
2023-04-25T18:02:52.732Z,99402.13
2023-04-25T18:05:19.620Z,99399.72
2023-04-25T18:07:46.301Z,99398.09
2023-04-25T18:10:14.904Z,99396.56
2023-04-25T18:12:41.590Z,99406.88
2023-04-25T18:15:09.278Z,99404.44
2023-04-25T18:17:45.790Z,99407.66
2023-04-25T18:20:17.469Z,99417.44
2023-04-25T18:22:45.350Z,99413.72
2023-04-25T18:25:13.790Z,99418.13
2023-04-25T18:27:41.729Z,99419.81
2023-04-25T18:30:10.871Z,99419.88
2023-04-25T18:32:38.171Z,99416.47
2023-04-25T18:35:05.533Z,99416.00
2023-04-25T18:37:32.115Z,99429.88
2023-04-25T18:39:58.737Z,99430.50
2023-04-25T18:42:25.350Z,99431.19
2023-04-25T18:44:52.478Z,99432.91
2023-04-25T18:47:19.008Z,99443.84
2023-04-25T18:49:45.680Z,99441.78
2023-04-25T18:52:15.069Z,99440.22
2023-04-25T18:54:42.590Z,99449.97
2023-04-25T18:57:09.538Z,99452.22
2023-04-25T18:59:36.221Z,99459.31
2023-04-25T19:02:04.448Z,99459.97
2023-04-25T19:04:31.736Z,99461.38
2023-04-25T19:06:58.360Z,99458.50
2023-04-25T19:09:25.251Z,99460.78
2023-04-25T19:11:52.006Z,99462.44
2023-04-25T19:14:18.682Z,99462.25
2023-04-25T19:16:45.561Z,99461.53
2023-04-25T19:19:12.557Z,99469.41
2023-04-25T19:21:39.178Z,99472.16
2023-04-25T19:24:07.006Z,99480.84
2023-04-25T19:26:33.916Z,99480.38
2023-04-25T19:29:09.464Z,99486.63
2023-04-25T19:31:37.703Z,99487.72
2023-04-25T19:34:05.621Z,99487.22
2023-04-25T19:36:32.446Z,99492.91
2023-04-25T19:39:03.856Z,99503.75
2023-04-25T19:41:31.897Z,99494.38
2023-04-25T19:44:00.951Z,99505.16
2023-04-25T19:46:27.591Z,99508.69
2023-04-25T19:48:54.209Z,99508.47
2023-04-25T19:51:21.070Z,99505.78
2023-04-25T19:53:47.615Z,99519.78
2023-04-25T19:56:14.231Z,99516.28
2023-04-25T19:58:40.819Z,99521.94
2023-04-25T20:01:07.651Z,99530.81
2023-04-25T20:03:34.454Z,99527.31
2023-04-25T20:06:01.109Z,99525.69
2023-04-25T20:08:27.645Z,99517.63
2023-04-25T20:10:54.181Z,99519.78
2023-04-25T20:13:20.736Z,99516.56
2023-04-25T20:15:47.331Z,99528.66
2023-04-25T20:18:14.029Z,99532.44
2023-04-25T20:20:40.595Z,99523.03
2023-04-25T20:23:07.225Z,99527.88
2023-04-25T20:25:33.760Z,99523.56
2023-04-25T20:28:00.307Z,99527.31
2023-04-25T20:30:26.925Z,99533.78
2023-04-25T20:32:53.542Z,99527.88
2023-04-25T20:35:22.685Z,99528.41
2023-04-25T20:37:50.602Z,99528.97
2023-04-25T20:40:17.197Z,99531.66
2023-04-25T20:42:43.764Z,99526.84
2023-04-25T20:45:13.500Z,99527.88
2023-04-25T20:47:41.054Z,99528.94
2023-04-25T20:50:08.295Z,99531.63
2023-04-25T20:52:35.407Z,99526.81
2023-04-25T20:55:02.046Z,99529.50
2023-04-25T20:57:29.314Z,99526.53
2023-04-25T20:59:57.352Z,99527.88
2023-04-25T21:02:24.435Z,99531.59
2023-04-25T21:04:51.852Z,99528.09
2023-04-25T21:07:18.432Z,99520.56
2023-04-25T21:09:45.696Z,99532.88
2023-04-25T21:12:12.378Z,99529.91
2023-04-25T21:14:38.983Z,99539.00
2023-04-25T21:17:05.974Z,99539.78
2023-04-25T21:19:33.111Z,99541.63
2023-04-25T21:22:00.176Z,99539.47
2023-04-25T21:24:27.381Z,99550.22
2023-04-25T21:26:53.968Z,99548.34
2023-04-25T21:29:20.545Z,99544.31
2023-04-25T21:31:47.323Z,99553.97
2023-04-25T21:34:13.850Z,99546.72
2023-04-25T21:36:41.359Z,99547.81
2023-04-25T21:39:08.074Z,99541.31
2023-04-25T21:41:34.791Z,99547.50
2023-04-25T21:44:01.326Z,99546.13
2023-04-25T21:46:27.957Z,99544.75
2023-04-25T21:48:54.920Z,99549.03
2023-04-25T21:51:22.814Z,99550.09
2023-04-25T21:53:49.388Z,99557.56
2023-04-25T21:56:16.036Z,99556.47
2023-04-25T21:58:42.642Z,99559.09
2023-04-25T22:01:10.017Z,99565.50
2023-04-25T22:03:36.741Z,99557.44
2023-04-25T22:06:04.002Z,99558.50
2023-04-25T22:08:30.633Z,99555.75
2023-04-25T22:10:57.177Z,99554.66
2023-04-25T22:13:23.886Z,99558.91
2023-04-25T22:15:50.933Z,99554.59
2023-04-25T22:18:18.201Z,99555.91
2023-04-25T22:20:44.963Z,99545.69
2023-04-25T22:23:12.164Z,99553.72
2023-04-25T22:25:38.922Z,99552.84
2023-04-25T22:28:05.647Z,99560.31
2023-04-25T22:30:32.694Z,99564.50
2023-04-25T22:32:59.443Z,99566.06
2023-04-25T22:35:26.256Z,99569.25
2023-04-25T22:37:53.107Z,99573.25
2023-04-25T22:40:19.736Z,99564.94
2023-04-25T22:42:46.722Z,99571.81
2023-04-25T22:45:13.668Z,99575.25
2023-04-25T22:47:40.677Z,99582.41
2023-04-25T22:50:13.087Z,99586.91
2023-04-25T22:52:40.578Z,99583.94
2023-04-25T22:55:07.459Z,99586.53
2023-04-25T22:57:38.329Z,99590.50
2023-04-25T23:00:15.291Z,99596.59
2023-04-25T23:02:46.176Z,99598.72
2023-04-25T23:05:13.509Z,99593.38
2023-04-25T23:07:44.711Z,99588.53
2023-04-25T23:10:12.162Z,99595.41
2023-04-25T23:12:40.122Z,99600.19
2023-04-25T23:15:07.866Z,99598.59
2023-04-25T23:17:35.206Z,99586.78
2023-04-25T23:20:01.883Z,99589.94
2023-04-25T23:22:28.425Z,99597.41
2023-04-25T23:24:55.081Z,99593.63
2023-04-25T23:27:21.653Z,99594.69
2023-04-25T23:29:54.836Z,99601.31
2023-04-25T23:32:22.386Z,99603.69
2023-04-25T23:34:49.422Z,99590.81
2023-04-25T23:37:16.126Z,99598.28
2023-04-25T23:39:49.314Z,99590.75
2023-04-25T23:42:16.246Z,99599.84
2023-04-25T23:44:42.938Z,99596.03
2023-04-25T23:47:09.895Z,99591.75
2023-04-25T23:49:36.510Z,99608.03
2023-04-25T23:52:05.058Z,99605.06
2023-04-25T23:54:31.766Z,99607.16
2023-04-25T23:56:58.308Z,99606.59
2023-04-25T23:59:24.885Z,99619.16
